sensor_id;sensor_type;location;lat;lon;timestamp;P1;durP1;ratioP1;P2;durP2;ratioP2
42614;SDS011;28754;47.700;7.924;2023-09-19T00:00:24;1.75;;;0.52;;
42614;SDS011;28754;47.700;7.924;2023-09-19T00:03:13;0.73;;;0.57;;
42614;SDS011;28754;47.700;7.924;2023-09-19T00:06:00;0.95;;;0.60;;
42614;SDS011;28754;47.700;7.924;2023-09-19T00:08:47;0.35;;;0.28;;
42614;SDS011;28754;47.700;7.924;2023-09-19T00:11:34;2.20;;;0.60;;
42614;SDS011;28754;47.700;7.924;2023-09-19T00:14:20;1.92;;;0.77;;
42614;SDS011;28754;47.700;7.924;2023-09-19T00:17:11;3.25;;;0.70;;
42614;SDS011;28754;47.700;7.924;2023-09-19T00:19:57;0.85;;;0.50;;
42614;SDS011;28754;47.700;7.924;2023-09-19T00:22:44;1.17;;;0.90;;
42614;SDS011;28754;47.700;7.924;2023-09-19T00:25:31;0.75;;;0.47;;
42614;SDS011;28754;47.700;7.924;2023-09-19T00:28:21;3.20;;;0.50;;
42614;SDS011;28754;47.700;7.924;2023-09-19T00:31:08;1.02;;;0.43;;
42614;SDS011;28754;47.700;7.924;2023-09-19T00:33:55;1.38;;;0.65;;
42614;SDS011;28754;47.700;7.924;2023-09-19T00:36:48;2.05;;;0.70;;
42614;SDS011;28754;47.700;7.924;2023-09-19T00:39:39;1.30;;;0.50;;
42614;SDS011;28754;47.700;7.924;2023-09-19T00:42:27;0.85;;;0.45;;
42614;SDS011;28754;47.700;7.924;2023-09-19T00:45:14;0.30;;;0.30;;
42614;SDS011;28754;47.700;7.924;2023-09-19T00:48:04;2.88;;;0.40;;
42614;SDS011;28754;47.700;7.924;2023-09-19T00:50:55;2.60;;;0.45;;
42614;SDS011;28754;47.700;7.924;2023-09-19T00:53:48;0.73;;;0.40;;
42614;SDS011;28754;47.700;7.924;2023-09-19T00:56:38;1.63;;;0.70;;
42614;SDS011;28754;47.700;7.924;2023-09-19T00:59:32;2.40;;;0.45;;
42614;SDS011;28754;47.700;7.924;2023-09-19T01:02:21;0.40;;;0.28;;
42614;SDS011;28754;47.700;7.924;2023-09-19T01:05:42;0.88;;;0.52;;
42614;SDS011;28754;47.700;7.924;2023-09-19T01:08:36;1.77;;;0.45;;
42614;SDS011;28754;47.700;7.924;2023-09-19T01:11:36;0.60;;;0.30;;
42614;SDS011;28754;47.700;7.924;2023-09-19T01:14:58;0.82;;;0.50;;
42614;SDS011;28754;47.700;7.924;2023-09-19T01:28:30;1.40;;;0.38;;
42614;SDS011;28754;47.700;7.924;2023-09-19T01:31:44;0.43;;;0.40;;
42614;SDS011;28754;47.700;7.924;2023-09-19T01:34:45;0.57;;;0.20;;
42614;SDS011;28754;47.700;7.924;2023-09-19T01:37:36;0.95;;;0.60;;
42614;SDS011;28754;47.700;7.924;2023-09-19T01:40:24;3.90;;;0.85;;
42614;SDS011;28754;47.700;7.924;2023-09-19T01:43:28;2.13;;;0.60;;
42614;SDS011;28754;47.700;7.924;2023-09-19T01:46:30;1.27;;;0.70;;
42614;SDS011;28754;47.700;7.924;2023-09-19T01:52:49;3.47;;;0.65;;
42614;SDS011;28754;47.700;7.924;2023-09-19T01:55:53;2.35;;;0.35;;
42614;SDS011;28754;47.700;7.924;2023-09-19T01:58:46;1.02;;;0.60;;
42614;SDS011;28754;47.700;7.924;2023-09-19T02:01:40;2.47;;;0.40;;
42614;SDS011;28754;47.700;7.924;2023-09-19T02:04:38;1.15;;;0.63;;
42614;SDS011;28754;47.700;7.924;2023-09-19T02:07:31;1.77;;;0.52;;
42614;SDS011;28754;47.700;7.924;2023-09-19T02:10:23;1.00;;;0.52;;
42614;SDS011;28754;47.700;7.924;2023-09-19T02:13:23;1.20;;;0.45;;
42614;SDS011;28754;47.700;7.924;2023-09-19T02:16:16;2.45;;;0.50;;
42614;SDS011;28754;47.700;7.924;2023-09-19T02:19:09;0.95;;;0.30;;
42614;SDS011;28754;47.700;7.924;2023-09-19T02:22:36;1.98;;;0.63;;
42614;SDS011;28754;47.700;7.924;2023-09-19T02:25:25;3.13;;;0.65;;
42614;SDS011;28754;47.700;7.924;2023-09-19T02:28:17;1.23;;;0.55;;
42614;SDS011;28754;47.700;7.924;2023-09-19T02:31:04;1.38;;;0.75;;
42614;SDS011;28754;47.700;7.924;2023-09-19T02:33:57;1.48;;;0.45;;
42614;SDS011;28754;47.700;7.924;2023-09-19T02:36:48;1.05;;;0.40;;
42614;SDS011;28754;47.700;7.924;2023-09-19T02:45:04;2.25;;;0.70;;
42614;SDS011;28754;47.700;7.924;2023-09-19T02:47:51;4.32;;;0.50;;
42614;SDS011;28754;47.700;7.924;2023-09-19T02:50:39;1.13;;;0.50;;
42614;SDS011;28754;47.700;7.924;2023-09-19T02:53:26;0.98;;;0.45;;
42614;SDS011;28754;47.700;7.924;2023-09-19T02:56:13;1.45;;;0.77;;
42614;SDS011;28754;47.700;7.924;2023-09-19T02:59:02;0.82;;;0.65;;
42614;SDS011;28754;47.700;7.924;2023-09-19T03:01:49;1.45;;;1.05;;
42614;SDS011;28754;47.700;7.924;2023-09-19T03:04:36;2.05;;;1.08;;
42614;SDS011;28754;47.700;7.924;2023-09-19T03:07:23;2.60;;;0.75;;
42614;SDS011;28754;47.700;7.924;2023-09-19T03:10:11;1.42;;;0.50;;
42614;SDS011;28754;47.700;7.924;2023-09-19T03:12:58;2.85;;;1.35;;
42614;SDS011;28754;47.700;7.924;2023-09-19T03:15:50;1.55;;;0.90;;
42614;SDS011;28754;47.700;7.924;2023-09-19T03:18:45;2.28;;;0.43;;
42614;SDS011;28754;47.700;7.924;2023-09-19T03:21:33;2.28;;;0.63;;
42614;SDS011;28754;47.700;7.924;2023-09-19T03:24:22;1.25;;;0.80;;
42614;SDS011;28754;47.700;7.924;2023-09-19T03:27:10;4.15;;;0.70;;
42614;SDS011;28754;47.700;7.924;2023-09-19T03:29:57;1.77;;;0.70;;
42614;SDS011;28754;47.700;7.924;2023-09-19T03:32:45;1.83;;;0.82;;
42614;SDS011;28754;47.700;7.924;2023-09-19T03:35:37;1.65;;;0.88;;
42614;SDS011;28754;47.700;7.924;2023-09-19T03:38:26;2.15;;;1.13;;
42614;SDS011;28754;47.700;7.924;2023-09-19T03:41:15;2.10;;;1.08;;
42614;SDS011;28754;47.700;7.924;2023-09-19T03:44:03;1.38;;;0.80;;
42614;SDS011;28754;47.700;7.924;2023-09-19T03:46:51;2.45;;;0.90;;
42614;SDS011;28754;47.700;7.924;2023-09-19T03:49:38;1.52;;;0.65;;
42614;SDS011;28754;47.700;7.924;2023-09-19T03:52:25;1.58;;;1.17;;
42614;SDS011;28754;47.700;7.924;2023-09-19T03:55:15;3.53;;;1.40;;
42614;SDS011;28754;47.700;7.924;2023-09-19T03:58:02;1.60;;;1.00;;
42614;SDS011;28754;47.700;7.924;2023-09-19T04:00:50;1.25;;;1.08;;
42614;SDS011;28754;47.700;7.924;2023-09-19T04:03:47;3.20;;;1.25;;
42614;SDS011;28754;47.700;7.924;2023-09-19T04:06:34;1.92;;;1.45;;
42614;SDS011;28754;47.700;7.924;2023-09-19T04:09:21;2.63;;;1.35;;
42614;SDS011;28754;47.700;7.924;2023-09-19T04:12:08;11.15;;;1.35;;
42614;SDS011;28754;47.700;7.924;2023-09-19T04:14:55;3.35;;;1.77;;
42614;SDS011;28754;47.700;7.924;2023-09-19T04:17:42;2.40;;;1.30;;
42614;SDS011;28754;47.700;7.924;2023-09-19T04:20:29;2.33;;;1.50;;
42614;SDS011;28754;47.700;7.924;2023-09-19T04:23:16;3.08;;;1.60;;
42614;SDS011;28754;47.700;7.924;2023-09-19T04:26:06;3.47;;;1.30;;
42614;SDS011;28754;47.700;7.924;2023-09-19T04:28:52;2.00;;;1.20;;
42614;SDS011;28754;47.700;7.924;2023-09-19T04:31:39;1.55;;;1.15;;
42614;SDS011;28754;47.700;7.924;2023-09-19T04:34:26;2.83;;;1.60;;
42614;SDS011;28754;47.700;7.924;2023-09-19T04:37:13;1.95;;;1.30;;
42614;SDS011;28754;47.700;7.924;2023-09-19T04:40:01;1.58;;;1.30;;
42614;SDS011;28754;47.700;7.924;2023-09-19T04:42:53;3.45;;;1.25;;
42614;SDS011;28754;47.700;7.924;2023-09-19T04:45:44;5.47;;;1.27;;
42614;SDS011;28754;47.700;7.924;2023-09-19T04:48:30;3.00;;;1.08;;
42614;SDS011;28754;47.700;7.924;2023-09-19T04:51:17;2.58;;;1.13;;
42614;SDS011;28754;47.700;7.924;2023-09-19T04:54:05;4.72;;;1.15;;
42614;SDS011;28754;47.700;7.924;2023-09-19T04:56:52;2.65;;;1.30;;
42614;SDS011;28754;47.700;7.924;2023-09-19T04:59:39;3.03;;;0.90;;
42614;SDS011;28754;47.700;7.924;2023-09-19T05:02:28;2.30;;;1.00;;
42614;SDS011;28754;47.700;7.924;2023-09-19T05:05:17;1.30;;;1.00;;
42614;SDS011;28754;47.700;7.924;2023-09-19T05:08:05;1.60;;;0.93;;
42614;SDS011;28754;47.700;7.924;2023-09-19T05:10:51;3.38;;;1.60;;
42614;SDS011;28754;47.700;7.924;2023-09-19T05:13:38;3.20;;;1.55;;
42614;SDS011;28754;47.700;7.924;2023-09-19T05:16:25;3.50;;;1.95;;
42614;SDS011;28754;47.700;7.924;2023-09-19T05:19:11;2.20;;;1.48;;
42614;SDS011;28754;47.700;7.924;2023-09-19T05:21:58;2.67;;;1.77;;
42614;SDS011;28754;47.700;7.924;2023-09-19T05:24:44;2.00;;;1.35;;
42614;SDS011;28754;47.700;7.924;2023-09-19T05:27:34;2.40;;;1.60;;
42614;SDS011;28754;47.700;7.924;2023-09-19T05:30:20;2.85;;;2.15;;
42614;SDS011;28754;47.700;7.924;2023-09-19T05:33:08;2.92;;;1.80;;
42614;SDS011;28754;47.700;7.924;2023-09-19T05:35:55;3.63;;;2.10;;
42614;SDS011;28754;47.700;7.924;2023-09-19T05:38:42;3.00;;;1.80;;
42614;SDS011;28754;47.700;7.924;2023-09-19T05:41:30;3.53;;;1.77;;
42614;SDS011;28754;47.700;7.924;2023-09-19T05:44:16;2.00;;;1.23;;
42614;SDS011;28754;47.700;7.924;2023-09-19T05:47:03;5.70;;;2.50;;
42614;SDS011;28754;47.700;7.924;2023-09-19T05:49:50;3.80;;;1.40;;
42614;SDS011;28754;47.700;7.924;2023-09-19T05:52:38;3.35;;;2.00;;
42614;SDS011;28754;47.700;7.924;2023-09-19T05:55:25;4.55;;;1.52;;
42614;SDS011;28754;47.700;7.924;2023-09-19T05:58:11;4.50;;;1.58;;
42614;SDS011;28754;47.700;7.924;2023-09-19T06:01:03;2.85;;;1.55;;
42614;SDS011;28754;47.700;7.924;2023-09-19T06:03:49;3.50;;;1.60;;
42614;SDS011;28754;47.700;7.924;2023-09-19T06:06:36;6.50;;;1.45;;
42614;SDS011;28754;47.700;7.924;2023-09-19T06:09:25;1.85;;;1.45;;
42614;SDS011;28754;47.700;7.924;2023-09-19T06:12:13;2.90;;;1.60;;
42614;SDS011;28754;47.700;7.924;2023-09-19T06:15:03;6.43;;;1.85;;
42614;SDS011;28754;47.700;7.924;2023-09-19T06:17:53;2.80;;;1.40;;
42614;SDS011;28754;47.700;7.924;2023-09-19T06:20:41;2.40;;;1.58;;
42614;SDS011;28754;47.700;7.924;2023-09-19T06:23:30;3.65;;;1.50;;
42614;SDS011;28754;47.700;7.924;2023-09-19T06:26:17;3.40;;;1.50;;
42614;SDS011;28754;47.700;7.924;2023-09-19T06:29:03;5.13;;;1.80;;
42614;SDS011;28754;47.700;7.924;2023-09-19T06:31:53;4.38;;;1.88;;
42614;SDS011;28754;47.700;7.924;2023-09-19T06:34:40;3.38;;;1.50;;
42614;SDS011;28754;47.700;7.924;2023-09-19T06:37:29;3.28;;;1.50;;
42614;SDS011;28754;47.700;7.924;2023-09-19T06:40:16;4.70;;;1.85;;
42614;SDS011;28754;47.700;7.924;2023-09-19T06:43:03;3.53;;;1.90;;
42614;SDS011;28754;47.700;7.924;2023-09-19T06:45:51;2.92;;;1.45;;
42614;SDS011;28754;47.700;7.924;2023-09-19T06:48:40;2.72;;;1.65;;
42614;SDS011;28754;47.700;7.924;2023-09-19T06:51:30;3.20;;;1.60;;
42614;SDS011;28754;47.700;7.924;2023-09-19T06:54:16;3.22;;;1.63;;
42614;SDS011;28754;47.700;7.924;2023-09-19T06:57:03;2.20;;;1.58;;
42614;SDS011;28754;47.700;7.924;2023-09-19T06:59:51;3.08;;;1.55;;
42614;SDS011;28754;47.700;7.924;2023-09-19T07:02:38;2.63;;;1.63;;
42614;SDS011;28754;47.700;7.924;2023-09-19T07:05:27;4.88;;;1.33;;
42614;SDS011;28754;47.700;7.924;2023-09-19T07:08:14;5.18;;;1.70;;
42614;SDS011;28754;47.700;7.924;2023-09-19T07:11:01;2.00;;;1.38;;
42614;SDS011;28754;47.700;7.924;2023-09-19T07:13:47;5.30;;;2.10;;
42614;SDS011;28754;47.700;7.924;2023-09-19T07:16:34;2.63;;;1.55;;
42614;SDS011;28754;47.700;7.924;2023-09-19T07:19:21;4.30;;;1.95;;
42614;SDS011;28754;47.700;7.924;2023-09-19T07:22:08;3.10;;;1.52;;
42614;SDS011;28754;47.700;7.924;2023-09-19T07:24:55;1.70;;;1.20;;
42614;SDS011;28754;47.700;7.924;2023-09-19T07:27:42;3.63;;;1.40;;
42614;SDS011;28754;47.700;7.924;2023-09-19T07:30:29;6.50;;;1.50;;
42614;SDS011;28754;47.700;7.924;2023-09-19T07:33:16;4.20;;;1.63;;
42614;SDS011;28754;47.700;7.924;2023-09-19T07:36:02;2.78;;;1.23;;
42614;SDS011;28754;47.700;7.924;2023-09-19T07:38:49;1.70;;;0.90;;
42614;SDS011;28754;47.700;7.924;2023-09-19T07:41:36;2.20;;;1.00;;
42614;SDS011;28754;47.700;7.924;2023-09-19T07:44:23;4.20;;;1.10;;
42614;SDS011;28754;47.700;7.924;2023-09-19T07:47:11;4.57;;;0.60;;
42614;SDS011;28754;47.700;7.924;2023-09-19T07:49:59;3.55;;;1.02;;
42614;SDS011;28754;47.700;7.924;2023-09-19T07:52:49;1.83;;;0.90;;
42614;SDS011;28754;47.700;7.924;2023-09-19T07:55:39;3.58;;;1.10;;
42614;SDS011;28754;47.700;7.924;2023-09-19T07:58:27;3.03;;;1.15;;
42614;SDS011;28754;47.700;7.924;2023-09-19T08:01:13;1.00;;;0.82;;
42614;SDS011;28754;47.700;7.924;2023-09-19T08:04:02;1.27;;;0.68;;
42614;SDS011;28754;47.700;7.924;2023-09-19T08:06:52;1.38;;;0.70;;
42614;SDS011;28754;47.700;7.924;2023-09-19T08:09:41;2.78;;;0.95;;
42614;SDS011;28754;47.700;7.924;2023-09-19T08:12:32;1.38;;;0.73;;
42614;SDS011;28754;47.700;7.924;2023-09-19T08:15:19;1.52;;;0.82;;
42614;SDS011;28754;47.700;7.924;2023-09-19T08:18:06;2.63;;;1.15;;
42614;SDS011;28754;47.700;7.924;2023-09-19T08:20:57;1.48;;;0.88;;
42614;SDS011;28754;47.700;7.924;2023-09-19T08:23:46;5.82;;;1.17;;
42614;SDS011;28754;47.700;7.924;2023-09-19T08:26:33;3.45;;;0.95;;
42614;SDS011;28754;47.700;7.924;2023-09-19T08:29:20;1.38;;;0.57;;
42614;SDS011;28754;47.700;7.924;2023-09-19T08:32:06;3.70;;;0.70;;
42614;SDS011;28754;47.700;7.924;2023-09-19T08:34:53;1.17;;;0.80;;
42614;SDS011;28754;47.700;7.924;2023-09-19T08:37:40;1.88;;;1.13;;
42614;SDS011;28754;47.700;7.924;2023-09-19T08:40:27;4.18;;;1.05;;
42614;SDS011;28754;47.700;7.924;2023-09-19T08:43:21;2.20;;;0.93;;
42614;SDS011;28754;47.700;7.924;2023-09-19T08:46:11;2.00;;;0.88;;
42614;SDS011;28754;47.700;7.924;2023-09-19T08:49:04;2.58;;;1.00;;
42614;SDS011;28754;47.700;7.924;2023-09-19T08:52:01;3.10;;;1.08;;
42614;SDS011;28754;47.700;7.924;2023-09-19T08:55:01;1.33;;;0.77;;
42614;SDS011;28754;47.700;7.924;2023-09-19T08:57:59;1.52;;;0.65;;
42614;SDS011;28754;47.700;7.924;2023-09-19T09:00:49;2.78;;;0.98;;
42614;SDS011;28754;47.700;7.924;2023-09-19T09:03:39;0.82;;;0.52;;
42614;SDS011;28754;47.700;7.924;2023-09-19T09:06:32;2.17;;;1.10;;
42614;SDS011;28754;47.700;7.924;2023-09-19T09:09:22;4.15;;;1.02;;
42614;SDS011;28754;47.700;7.924;2023-09-19T09:12:10;1.85;;;0.80;;
42614;SDS011;28754;47.700;7.924;2023-09-19T09:14:59;2.60;;;0.82;;
42614;SDS011;28754;47.700;7.924;2023-09-19T09:17:47;3.60;;;1.02;;
42614;SDS011;28754;47.700;7.924;2023-09-19T09:20:38;3.47;;;1.17;;
42614;SDS011;28754;47.700;7.924;2023-09-19T09:23:26;4.93;;;1.40;;
42614;SDS011;28754;47.700;7.924;2023-09-19T09:26:22;2.00;;;1.13;;
42614;SDS011;28754;47.700;7.924;2023-09-19T09:29:41;1.58;;;0.85;;
42614;SDS011;28754;47.700;7.924;2023-09-19T09:32:35;2.10;;;1.00;;
42614;SDS011;28754;47.700;7.924;2023-09-19T09:35:22;2.75;;;1.15;;
42614;SDS011;28754;47.700;7.924;2023-09-19T09:38:10;1.13;;;0.73;;
42614;SDS011;28754;47.700;7.924;2023-09-19T09:40:56;2.90;;;1.15;;
42614;SDS011;28754;47.700;7.924;2023-09-19T09:43:48;3.08;;;0.93;;
42614;SDS011;28754;47.700;7.924;2023-09-19T09:46:34;1.10;;;0.60;;
42614;SDS011;28754;47.700;7.924;2023-09-19T09:49:39;5.18;;;1.30;;
42614;SDS011;28754;47.700;7.924;2023-09-19T09:52:46;1.70;;;1.02;;
42614;SDS011;28754;47.700;7.924;2023-09-19T09:55:56;7.13;;;1.10;;
42614;SDS011;28754;47.700;7.924;2023-09-19T09:58:55;3.03;;;0.90;;
42614;SDS011;28754;47.700;7.924;2023-09-19T10:01:48;2.00;;;1.05;;
42614;SDS011;28754;47.700;7.924;2023-09-19T10:04:35;1.90;;;0.85;;
42614;SDS011;28754;47.700;7.924;2023-09-19T10:07:30;1.23;;;0.77;;
42614;SDS011;28754;47.700;7.924;2023-09-19T10:10:34;1.95;;;0.88;;
42614;SDS011;28754;47.700;7.924;2023-09-19T10:13:29;3.60;;;0.88;;
42614;SDS011;28754;47.700;7.924;2023-09-19T10:16:18;1.73;;;0.88;;
42614;SDS011;28754;47.700;7.924;2023-09-19T10:19:06;3.10;;;1.15;;
42614;SDS011;28754;47.700;7.924;2023-09-19T10:21:55;1.08;;;0.82;;
42614;SDS011;28754;47.700;7.924;2023-09-19T10:24:45;1.23;;;0.70;;
42614;SDS011;28754;47.700;7.924;2023-09-19T10:27:38;3.72;;;0.70;;
42614;SDS011;28754;47.700;7.924;2023-09-19T10:30:29;0.95;;;0.70;;
42614;SDS011;28754;47.700;7.924;2023-09-19T10:33:27;1.90;;;0.93;;
42614;SDS011;28754;47.700;7.924;2023-09-19T10:36:24;2.13;;;0.93;;
42614;SDS011;28754;47.700;7.924;2023-09-19T10:39:14;2.17;;;0.77;;
42614;SDS011;28754;47.700;7.924;2023-09-19T10:42:05;2.50;;;0.68;;
42614;SDS011;28754;47.700;7.924;2023-09-19T10:44:58;2.45;;;1.00;;
42614;SDS011;28754;47.700;7.924;2023-09-19T10:47:50;3.38;;;0.80;;
42614;SDS011;28754;47.700;7.924;2023-09-19T10:50:42;1.50;;;1.10;;
42614;SDS011;28754;47.700;7.924;2023-09-19T10:53:41;1.23;;;0.60;;
42614;SDS011;28754;47.700;7.924;2023-09-19T10:56:48;3.33;;;1.23;;
42614;SDS011;28754;47.700;7.924;2023-09-19T10:59:37;1.95;;;0.65;;
42614;SDS011;28754;47.700;7.924;2023-09-19T11:03:20;0.82;;;0.70;;
42614;SDS011;28754;47.700;7.924;2023-09-19T11:06:19;2.55;;;1.02;;
42614;SDS011;28754;47.700;7.924;2023-09-19T11:09:06;0.77;;;0.60;;
42614;SDS011;28754;47.700;7.924;2023-09-19T11:11:56;1.45;;;0.57;;
42614;SDS011;28754;47.700;7.924;2023-09-19T11:14:43;1.80;;;0.80;;
42614;SDS011;28754;47.700;7.924;2023-09-19T11:17:34;3.95;;;0.82;;
42614;SDS011;28754;47.700;7.924;2023-09-19T11:20:30;4.57;;;0.80;;
42614;SDS011;28754;47.700;7.924;2023-09-19T11:23:27;0.90;;;0.60;;
42614;SDS011;28754;47.700;7.924;2023-09-19T11:26:39;2.30;;;1.10;;
42614;SDS011;28754;47.700;7.924;2023-09-19T11:29:33;1.58;;;0.68;;
42614;SDS011;28754;47.700;7.924;2023-09-19T11:32:49;1.45;;;0.40;;
42614;SDS011;28754;47.700;7.924;2023-09-19T11:39:24;1.88;;;1.00;;
42614;SDS011;28754;47.700;7.924;2023-09-19T11:48:32;1.48;;;0.50;;
42614;SDS011;28754;47.700;7.924;2023-09-19T11:51:21;5.97;;;0.70;;
42614;SDS011;28754;47.700;7.924;2023-09-19T11:54:13;1.83;;;0.70;;
42614;SDS011;28754;47.700;7.924;2023-09-19T11:57:04;2.97;;;0.68;;
42614;SDS011;28754;47.700;7.924;2023-09-19T11:59:52;2.05;;;0.75;;
42614;SDS011;28754;47.700;7.924;2023-09-19T12:02:41;1.60;;;0.60;;
42614;SDS011;28754;47.700;7.924;2023-09-19T12:05:32;8.82;;;1.45;;
42614;SDS011;28754;47.700;7.924;2023-09-19T12:08:20;1.08;;;0.60;;
42614;SDS011;28754;47.700;7.924;2023-09-19T12:11:07;5.72;;;0.93;;
42614;SDS011;28754;47.700;7.924;2023-09-19T12:14:02;1.77;;;0.80;;
42614;SDS011;28754;47.700;7.924;2023-09-19T12:16:56;1.13;;;0.60;;
42614;SDS011;28754;47.700;7.924;2023-09-19T12:19:56;1.25;;;0.73;;
42614;SDS011;28754;47.700;7.924;2023-09-19T12:22:43;1.58;;;0.50;;
42614;SDS011;28754;47.700;7.924;2023-09-19T12:25:42;1.27;;;0.55;;
42614;SDS011;28754;47.700;7.924;2023-09-19T12:28:37;1.23;;;0.50;;
42614;SDS011;28754;47.700;7.924;2023-09-19T12:31:31;0.85;;;0.57;;
42614;SDS011;28754;47.700;7.924;2023-09-19T12:34:26;3.00;;;0.73;;
42614;SDS011;28754;47.700;7.924;2023-09-19T12:37:16;1.80;;;0.80;;
42614;SDS011;28754;47.700;7.924;2023-09-19T12:40:08;1.55;;;0.65;;
42614;SDS011;28754;47.700;7.924;2023-09-19T12:43:03;3.58;;;0.60;;
42614;SDS011;28754;47.700;7.924;2023-09-19T12:45:51;1.42;;;0.80;;
42614;SDS011;28754;47.700;7.924;2023-09-19T12:48:39;2.15;;;0.50;;
42614;SDS011;28754;47.700;7.924;2023-09-19T12:51:34;5.97;;;1.15;;
42614;SDS011;28754;47.700;7.924;2023-09-19T12:54:22;1.95;;;0.75;;
42614;SDS011;28754;47.700;7.924;2023-09-19T12:57:23;2.30;;;0.40;;
42614;SDS011;28754;47.700;7.924;2023-09-19T13:00:11;1.35;;;0.65;;
42614;SDS011;28754;47.700;7.924;2023-09-19T13:03:14;1.23;;;0.63;;
42614;SDS011;28754;47.700;7.924;2023-09-19T13:06:12;1.80;;;1.17;;
42614;SDS011;28754;47.700;7.924;2023-09-19T13:09:09;1.40;;;0.68;;
42614;SDS011;28754;47.700;7.924;2023-09-19T13:11:57;5.80;;;0.93;;
42614;SDS011;28754;47.700;7.924;2023-09-19T13:14:45;1.13;;;0.60;;
42614;SDS011;28754;47.700;7.924;2023-09-19T13:17:43;3.90;;;0.73;;
42614;SDS011;28754;47.700;7.924;2023-09-19T13:20:35;1.13;;;0.60;;
42614;SDS011;28754;47.700;7.924;2023-09-19T13:23:28;2.08;;;1.02;;
42614;SDS011;28754;47.700;7.924;2023-09-19T13:26:15;3.80;;;0.90;;
42614;SDS011;28754;47.700;7.924;2023-09-19T13:29:01;7.88;;;1.13;;
42614;SDS011;28754;47.700;7.924;2023-09-19T13:31:48;3.35;;;1.08;;
42614;SDS011;28754;47.700;7.924;2023-09-19T13:34:38;1.30;;;0.60;;
42614;SDS011;28754;47.700;7.924;2023-09-19T13:37:25;1.45;;;0.52;;
42614;SDS011;28754;47.700;7.924;2023-09-19T13:40:13;0.68;;;0.50;;
42614;SDS011;28754;47.700;7.924;2023-09-19T13:43:01;1.05;;;0.40;;
42614;SDS011;28754;47.700;7.924;2023-09-19T13:45:48;3.83;;;0.70;;
42614;SDS011;28754;47.700;7.924;2023-09-19T13:48:36;2.42;;;1.15;;
42614;SDS011;28754;47.700;7.924;2023-09-19T13:51:27;1.30;;;0.80;;
42614;SDS011;28754;47.700;7.924;2023-09-19T13:54:19;3.10;;;1.58;;
42614;SDS011;28754;47.700;7.924;2023-09-19T13:57:07;2.22;;;1.00;;
42614;SDS011;28754;47.700;7.924;2023-09-19T14:00:45;3.30;;;0.70;;
42614;SDS011;28754;47.700;7.924;2023-09-19T14:07:18;0.98;;;0.60;;
42614;SDS011;28754;47.700;7.924;2023-09-19T14:11:21;7.30;;;0.60;;
42614;SDS011;28754;47.700;7.924;2023-09-19T14:14:23;1.08;;;0.65;;
42614;SDS011;28754;47.700;7.924;2023-09-19T14:17:42;1.25;;;0.77;;
42614;SDS011;28754;47.700;7.924;2023-09-19T14:20:37;1.20;;;0.75;;
42614;SDS011;28754;47.700;7.924;2023-09-19T14:23:45;1.17;;;0.60;;
42614;SDS011;28754;47.700;7.924;2023-09-19T14:26:45;0.90;;;0.63;;
42614;SDS011;28754;47.700;7.924;2023-09-19T14:29:48;1.38;;;0.90;;
42614;SDS011;28754;47.700;7.924;2023-09-19T14:32:34;1.88;;;0.50;;
42614;SDS011;28754;47.700;7.924;2023-09-19T14:35:48;0.82;;;0.50;;
42614;SDS011;28754;47.700;7.924;2023-09-19T14:39:04;1.42;;;0.50;;
42614;SDS011;28754;47.700;7.924;2023-09-19T14:41:51;0.70;;;0.40;;
42614;SDS011;28754;47.700;7.924;2023-09-19T14:44:39;0.77;;;0.55;;
42614;SDS011;28754;47.700;7.924;2023-09-19T14:47:26;3.13;;;0.55;;
42614;SDS011;28754;47.700;7.924;2023-09-19T14:50:14;1.33;;;0.60;;
42614;SDS011;28754;47.700;7.924;2023-09-19T14:53:01;1.83;;;0.40;;
42614;SDS011;28754;47.700;7.924;2023-09-19T14:55:48;2.33;;;0.52;;
42614;SDS011;28754;47.700;7.924;2023-09-19T14:58:37;2.53;;;1.38;;
42614;SDS011;28754;47.700;7.924;2023-09-19T15:01:25;1.88;;;0.93;;
42614;SDS011;28754;47.700;7.924;2023-09-19T15:04:14;1.25;;;0.60;;
42614;SDS011;28754;47.700;7.924;2023-09-19T15:07:01;1.27;;;0.57;;
42614;SDS011;28754;47.700;7.924;2023-09-19T15:09:48;3.80;;;0.73;;
42614;SDS011;28754;47.700;7.924;2023-09-19T15:12:38;1.90;;;0.50;;
42614;SDS011;28754;47.700;7.924;2023-09-19T15:15:25;0.85;;;0.50;;
42614;SDS011;28754;47.700;7.924;2023-09-19T15:18:15;2.15;;;0.50;;
42614;SDS011;28754;47.700;7.924;2023-09-19T15:21:05;4.68;;;0.80;;
42614;SDS011;28754;47.700;7.924;2023-09-19T15:23:58;0.95;;;0.60;;
42614;SDS011;28754;47.700;7.924;2023-09-19T15:26:45;1.20;;;0.70;;
42614;SDS011;28754;47.700;7.924;2023-09-19T15:29:32;1.45;;;0.45;;
42614;SDS011;28754;47.700;7.924;2023-09-19T15:32:19;1.55;;;0.45;;
42614;SDS011;28754;47.700;7.924;2023-09-19T15:35:06;2.88;;;0.63;;
42614;SDS011;28754;47.700;7.924;2023-09-19T15:37:57;0.68;;;0.50;;
42614;SDS011;28754;47.700;7.924;2023-09-19T15:40:46;1.33;;;0.60;;
42614;SDS011;28754;47.700;7.924;2023-09-19T15:43:33;1.80;;;0.98;;
42614;SDS011;28754;47.700;7.924;2023-09-19T15:46:20;2.95;;;0.70;;
42614;SDS011;28754;47.700;7.924;2023-09-19T15:49:08;1.92;;;0.50;;
42614;SDS011;28754;47.700;7.924;2023-09-19T15:51:55;1.23;;;0.63;;
42614;SDS011;28754;47.700;7.924;2023-09-19T15:54:41;0.75;;;0.50;;
42614;SDS011;28754;47.700;7.924;2023-09-19T15:57:30;2.67;;;0.52;;
42614;SDS011;28754;47.700;7.924;2023-09-19T16:00:17;1.48;;;0.40;;
42614;SDS011;28754;47.700;7.924;2023-09-19T16:03:05;0.75;;;0.40;;
42614;SDS011;28754;47.700;7.924;2023-09-19T16:05:52;0.93;;;0.70;;
42614;SDS011;28754;47.700;7.924;2023-09-19T16:08:42;1.88;;;0.80;;
42614;SDS011;28754;47.700;7.924;2023-09-19T16:11:34;2.22;;;0.60;;
42614;SDS011;28754;47.700;7.924;2023-09-19T16:14:23;1.63;;;0.80;;
42614;SDS011;28754;47.700;7.924;2023-09-19T16:17:10;3.15;;;0.85;;
42614;SDS011;28754;47.700;7.924;2023-09-19T16:19:57;1.67;;;0.50;;
42614;SDS011;28754;47.700;7.924;2023-09-19T16:22:58;1.17;;;0.45;;
42614;SDS011;28754;47.700;7.924;2023-09-19T16:26:04;1.00;;;0.45;;
42614;SDS011;28754;47.700;7.924;2023-09-19T16:28:55;0.70;;;0.45;;
42614;SDS011;28754;47.700;7.924;2023-09-19T16:31:46;1.35;;;0.30;;
42614;SDS011;28754;47.700;7.924;2023-09-19T16:34:33;1.58;;;0.57;;
42614;SDS011;28754;47.700;7.924;2023-09-19T16:37:19;2.60;;;0.93;;
42614;SDS011;28754;47.700;7.924;2023-09-19T16:40:14;1.38;;;0.80;;
42614;SDS011;28754;47.700;7.924;2023-09-19T16:43:00;0.85;;;0.63;;
42614;SDS011;28754;47.700;7.924;2023-09-19T16:46:01;0.82;;;0.50;;
42614;SDS011;28754;47.700;7.924;2023-09-19T16:49:00;1.42;;;0.75;;
42614;SDS011;28754;47.700;7.924;2023-09-19T16:51:52;1.50;;;0.85;;
42614;SDS011;28754;47.700;7.924;2023-09-19T16:54:39;1.27;;;0.82;;
42614;SDS011;28754;47.700;7.924;2023-09-19T16:57:28;1.90;;;0.50;;
42614;SDS011;28754;47.700;7.924;2023-09-19T17:00:18;3.33;;;0.93;;
42614;SDS011;28754;47.700;7.924;2023-09-19T17:03:11;2.95;;;0.63;;
42614;SDS011;28754;47.700;7.924;2023-09-19T17:06:07;2.55;;;0.75;;
42614;SDS011;28754;47.700;7.924;2023-09-19T17:09:17;1.88;;;0.55;;
42614;SDS011;28754;47.700;7.924;2023-09-19T17:12:07;4.22;;;0.60;;
42614;SDS011;28754;47.700;7.924;2023-09-19T17:15:04;1.30;;;0.63;;
42614;SDS011;28754;47.700;7.924;2023-09-19T17:17:52;1.20;;;0.60;;
42614;SDS011;28754;47.700;7.924;2023-09-19T17:20:40;2.53;;;1.17;;
42614;SDS011;28754;47.700;7.924;2023-09-19T17:23:28;3.13;;;0.80;;
42614;SDS011;28754;47.700;7.924;2023-09-19T17:26:16;3.75;;;0.50;;
42614;SDS011;28754;47.700;7.924;2023-09-19T17:29:06;2.58;;;0.75;;
42614;SDS011;28754;47.700;7.924;2023-09-19T17:31:56;1.30;;;0.70;;
42614;SDS011;28754;47.700;7.924;2023-09-19T17:34:43;0.77;;;0.60;;
42614;SDS011;28754;47.700;7.924;2023-09-19T17:37:35;3.30;;;0.75;;
42614;SDS011;28754;47.700;7.924;2023-09-19T17:40:27;1.05;;;0.68;;
42614;SDS011;28754;47.700;7.924;2023-09-19T17:43:14;1.10;;;0.52;;
42614;SDS011;28754;47.700;7.924;2023-09-19T17:46:07;0.65;;;0.50;;